sensor_id;sensor_type;location;lat;lon;timestamp;P1;durP1;ratioP1;P2;durP2;ratioP2
65045;SDS011;54657;52.022;5.534;2022-09-21T00:01:56;3.08;;;2.00;;
65045;SDS011;54657;52.022;5.534;2022-09-21T00:04:22;5.70;;;2.30;;
65045;SDS011;54657;52.022;5.534;2022-09-21T00:06:48;3.42;;;2.00;;
65045;SDS011;54657;52.022;5.534;2022-09-21T00:09:13;4.65;;;2.35;;
65045;SDS011;54657;52.022;5.534;2022-09-21T00:11:39;2.05;;;1.80;;
65045;SDS011;54657;52.022;5.534;2022-09-21T00:14:08;3.80;;;2.10;;
65045;SDS011;54657;52.022;5.534;2022-09-21T00:16:36;5.00;;;2.30;;
65045;SDS011;54657;52.022;5.534;2022-09-21T00:19:03;5.13;;;2.42;;
65045;SDS011;54657;52.022;5.534;2022-09-21T00:21:28;3.22;;;2.00;;
65045;SDS011;54657;52.022;5.534;2022-09-21T00:23:54;4.15;;;2.03;;
65045;SDS011;54657;52.022;5.534;2022-09-21T00:26:21;5.30;;;2.15;;
65045;SDS011;54657;52.022;5.534;2022-09-21T00:28:52;3.55;;;1.92;;
65045;SDS011;54657;52.022;5.534;2022-09-21T00:31:22;3.10;;;1.88;;
65045;SDS011;54657;52.022;5.534;2022-09-21T00:33:48;2.70;;;1.85;;
65045;SDS011;54657;52.022;5.534;2022-09-21T00:36:15;3.22;;;1.83;;
65045;SDS011;54657;52.022;5.534;2022-09-21T00:38:42;3.88;;;2.05;;
65045;SDS011;54657;52.022;5.534;2022-09-21T00:41:11;7.25;;;2.00;;
65045;SDS011;54657;52.022;5.534;2022-09-21T00:43:39;6.43;;;1.95;;
65045;SDS011;54657;52.022;5.534;2022-09-21T00:46:13;4.20;;;2.20;;
65045;SDS011;54657;52.022;5.534;2022-09-21T00:48:50;2.65;;;2.08;;
65045;SDS011;54657;52.022;5.534;2022-09-21T00:51:16;3.15;;;1.90;;
65045;SDS011;54657;52.022;5.534;2022-09-21T00:53:42;5.38;;;2.30;;
65045;SDS011;54657;52.022;5.534;2022-09-21T00:56:08;4.05;;;1.77;;
65045;SDS011;54657;52.022;5.534;2022-09-21T00:58:41;7.90;;;2.10;;
65045;SDS011;54657;52.022;5.534;2022-09-21T01:01:10;4.05;;;2.00;;
65045;SDS011;54657;52.022;5.534;2022-09-21T01:03:39;4.43;;;2.65;;
65045;SDS011;54657;52.022;5.534;2022-09-21T01:06:09;4.05;;;2.30;;
65045;SDS011;54657;52.022;5.534;2022-09-21T01:08:40;4.60;;;2.40;;
65045;SDS011;54657;52.022;5.534;2022-09-21T01:14:07;3.80;;;2.38;;
65045;SDS011;54657;52.022;5.534;2022-09-21T01:22:51;2.92;;;2.10;;
65045;SDS011;54657;52.022;5.534;2022-09-21T01:31:05;4.22;;;2.20;;
65045;SDS011;54657;52.022;5.534;2022-09-21T01:33:38;2.97;;;2.47;;
65045;SDS011;54657;52.022;5.534;2022-09-21T01:36:13;6.22;;;2.25;;
65045;SDS011;54657;52.022;5.534;2022-09-21T01:38:47;5.45;;;2.47;;
65045;SDS011;54657;52.022;5.534;2022-09-21T01:41:15;4.88;;;2.30;;
65045;SDS011;54657;52.022;5.534;2022-09-21T01:43:53;5.55;;;2.35;;
65045;SDS011;54657;52.022;5.534;2022-09-21T01:46:29;7.05;;;2.80;;
65045;SDS011;54657;52.022;5.534;2022-09-21T01:49:00;4.53;;;2.63;;
65045;SDS011;54657;52.022;5.534;2022-09-21T01:51:34;5.75;;;2.45;;
65045;SDS011;54657;52.022;5.534;2022-09-21T01:54:10;6.15;;;2.58;;
65045;SDS011;54657;52.022;5.534;2022-09-21T01:56:45;5.68;;;2.78;;
65045;SDS011;54657;52.022;5.534;2022-09-21T01:59:24;6.07;;;3.13;;
65045;SDS011;54657;52.022;5.534;2022-09-21T02:02:16;3.22;;;2.22;;
65045;SDS011;54657;52.022;5.534;2022-09-21T02:04:55;4.90;;;2.78;;
65045;SDS011;54657;52.022;5.534;2022-09-21T02:07:25;6.03;;;3.00;;
65045;SDS011;54657;52.022;5.534;2022-09-21T02:09:51;6.28;;;2.78;;
65045;SDS011;54657;52.022;5.534;2022-09-21T02:12:19;3.55;;;2.70;;
65045;SDS011;54657;52.022;5.534;2022-09-21T02:14:45;4.20;;;2.45;;
65045;SDS011;54657;52.022;5.534;2022-09-21T02:17:28;5.22;;;2.25;;
65045;SDS011;54657;52.022;5.534;2022-09-21T02:20:19;2.88;;;2.17;;
65045;SDS011;54657;52.022;5.534;2022-09-21T02:25:40;2.60;;;1.80;;
65045;SDS011;54657;52.022;5.534;2022-09-21T02:28:45;3.55;;;2.10;;
65045;SDS011;54657;52.022;5.534;2022-09-21T02:33:56;6.47;;;2.00;;
65045;SDS011;54657;52.022;5.534;2022-09-21T02:36:30;3.35;;;1.98;;
65045;SDS011;54657;52.022;5.534;2022-09-21T02:39:07;2.80;;;2.28;;
65045;SDS011;54657;52.022;5.534;2022-09-21T02:41:57;6.35;;;1.98;;
65045;SDS011;54657;52.022;5.534;2022-09-21T02:44:34;6.45;;;2.47;;
65045;SDS011;54657;52.022;5.534;2022-09-21T02:47:11;2.85;;;2.20;;
65045;SDS011;54657;52.022;5.534;2022-09-21T02:49:48;3.95;;;2.05;;
65045;SDS011;54657;52.022;5.534;2022-09-21T02:52:18;4.72;;;2.25;;
65045;SDS011;54657;52.022;5.534;2022-09-21T02:54:47;2.33;;;2.13;;
65045;SDS011;54657;52.022;5.534;2022-09-21T02:57:15;3.10;;;2.20;;
65045;SDS011;54657;52.022;5.534;2022-09-21T02:59:43;2.33;;;2.00;;
65045;SDS011;54657;52.022;5.534;2022-09-21T03:02:09;4.40;;;3.00;;
65045;SDS011;54657;52.022;5.534;2022-09-21T03:04:36;5.03;;;2.42;;
65045;SDS011;54657;52.022;5.534;2022-09-21T03:07:05;4.50;;;2.55;;
65045;SDS011;54657;52.022;5.534;2022-09-21T03:09:31;4.13;;;2.38;;
65045;SDS011;54657;52.022;5.534;2022-09-21T03:11:56;3.55;;;2.17;;
65045;SDS011;54657;52.022;5.534;2022-09-21T03:14:22;3.17;;;2.38;;
65045;SDS011;54657;52.022;5.534;2022-09-21T03:16:48;5.85;;;2.25;;
65045;SDS011;54657;52.022;5.534;2022-09-21T03:19:13;5.15;;;2.97;;
65045;SDS011;54657;52.022;5.534;2022-09-21T03:21:39;4.90;;;2.28;;
65045;SDS011;54657;52.022;5.534;2022-09-21T03:24:05;4.93;;;2.17;;
65045;SDS011;54657;52.022;5.534;2022-09-21T03:26:31;3.75;;;2.35;;
65045;SDS011;54657;52.022;5.534;2022-09-21T03:28:56;2.90;;;2.47;;
65045;SDS011;54657;52.022;5.534;2022-09-21T03:31:22;4.25;;;2.55;;
65045;SDS011;54657;52.022;5.534;2022-09-21T03:33:47;3.03;;;2.70;;
65045;SDS011;54657;52.022;5.534;2022-09-21T03:36:13;4.15;;;2.67;;
65045;SDS011;54657;52.022;5.534;2022-09-21T03:38:39;3.45;;;2.60;;
65045;SDS011;54657;52.022;5.534;2022-09-21T03:41:04;2.92;;;2.63;;
65045;SDS011;54657;52.022;5.534;2022-09-21T03:43:30;2.70;;;2.50;;
65045;SDS011;54657;52.022;5.534;2022-09-21T03:45:56;4.32;;;2.55;;
65045;SDS011;54657;52.022;5.534;2022-09-21T03:48:22;3.58;;;2.50;;
65045;SDS011;54657;52.022;5.534;2022-09-21T03:50:48;3.40;;;2.60;;
65045;SDS011;54657;52.022;5.534;2022-09-21T03:53:13;4.15;;;2.58;;
65045;SDS011;54657;52.022;5.534;2022-09-21T03:55:40;4.82;;;2.50;;
65045;SDS011;54657;52.022;5.534;2022-09-21T03:58:06;3.42;;;2.47;;
65045;SDS011;54657;52.022;5.534;2022-09-21T04:00:33;4.85;;;2.70;;
65045;SDS011;54657;52.022;5.534;2022-09-21T04:02:59;4.38;;;2.70;;
65045;SDS011;54657;52.022;5.534;2022-09-21T04:05:25;3.38;;;2.45;;
65045;SDS011;54657;52.022;5.534;2022-09-21T04:07:51;5.07;;;2.33;;
65045;SDS011;54657;52.022;5.534;2022-09-21T04:10:20;4.15;;;2.50;;
65045;SDS011;54657;52.022;5.534;2022-09-21T04:12:57;7.68;;;2.67;;
65045;SDS011;54657;52.022;5.534;2022-09-21T04:15:25;6.82;;;2.60;;
65045;SDS011;54657;52.022;5.534;2022-09-21T04:17:51;3.05;;;2.55;;
65045;SDS011;54657;52.022;5.534;2022-09-21T04:20:18;4.90;;;2.72;;
65045;SDS011;54657;52.022;5.534;2022-09-21T04:22:44;3.95;;;2.50;;
65045;SDS011;54657;52.022;5.534;2022-09-21T04:25:11;4.50;;;2.33;;
65045;SDS011;54657;52.022;5.534;2022-09-21T04:27:37;6.85;;;2.72;;
65045;SDS011;54657;52.022;5.534;2022-09-21T04:30:04;2.95;;;2.65;;
65045;SDS011;54657;52.022;5.534;2022-09-21T04:32:30;4.68;;;2.50;;
65045;SDS011;54657;52.022;5.534;2022-09-21T04:34:56;4.15;;;2.38;;
65045;SDS011;54657;52.022;5.534;2022-09-21T04:37:22;3.33;;;2.60;;
65045;SDS011;54657;52.022;5.534;2022-09-21T04:39:48;4.03;;;2.42;;
65045;SDS011;54657;52.022;5.534;2022-09-21T04:42:13;5.38;;;2.90;;
65045;SDS011;54657;52.022;5.534;2022-09-21T04:44:39;3.28;;;2.38;;
65045;SDS011;54657;52.022;5.534;2022-09-21T04:47:04;5.88;;;2.60;;
65045;SDS011;54657;52.022;5.534;2022-09-21T04:49:30;4.32;;;2.58;;
65045;SDS011;54657;52.022;5.534;2022-09-21T04:51:55;4.82;;;2.50;;
65045;SDS011;54657;52.022;5.534;2022-09-21T04:54:21;3.42;;;3.13;;
65045;SDS011;54657;52.022;5.534;2022-09-21T04:56:47;5.40;;;2.80;;
65045;SDS011;54657;52.022;5.534;2022-09-21T04:59:12;5.40;;;2.33;;
65045;SDS011;54657;52.022;5.534;2022-09-21T05:01:38;3.88;;;2.42;;
65045;SDS011;54657;52.022;5.534;2022-09-21T05:04:03;3.28;;;2.28;;
65045;SDS011;54657;52.022;5.534;2022-09-21T05:06:30;2.90;;;2.28;;
65045;SDS011;54657;52.022;5.534;2022-09-21T05:08:57;4.03;;;2.22;;
65045;SDS011;54657;52.022;5.534;2022-09-21T05:11:41;4.78;;;2.63;;
65045;SDS011;54657;52.022;5.534;2022-09-21T05:14:07;6.15;;;2.53;;
65045;SDS011;54657;52.022;5.534;2022-09-21T05:16:33;2.72;;;2.40;;
65045;SDS011;54657;52.022;5.534;2022-09-21T05:18:59;4.45;;;2.67;;
65045;SDS011;54657;52.022;5.534;2022-09-21T05:21:24;6.70;;;2.72;;
65045;SDS011;54657;52.022;5.534;2022-09-21T05:23:50;7.00;;;3.05;;
65045;SDS011;54657;52.022;5.534;2022-09-21T05:26:16;5.40;;;3.20;;
65045;SDS011;54657;52.022;5.534;2022-09-21T05:28:42;9.57;;;4.35;;
65045;SDS011;54657;52.022;5.534;2022-09-21T05:39:16;8.18;;;3.50;;
65045;SDS011;54657;52.022;5.534;2022-09-21T05:41:42;7.22;;;4.40;;
65045;SDS011;54657;52.022;5.534;2022-09-21T05:44:10;5.10;;;3.35;;
65045;SDS011;54657;52.022;5.534;2022-09-21T05:46:39;6.47;;;3.60;;
65045;SDS011;54657;52.022;5.534;2022-09-21T05:52:24;5.82;;;3.95;;
65045;SDS011;54657;52.022;5.534;2022-09-21T05:55:02;8.95;;;3.35;;
65045;SDS011;54657;52.022;5.534;2022-09-21T05:57:54;10.85;;;4.25;;
65045;SDS011;54657;52.022;5.534;2022-09-21T06:00:23;5.65;;;3.33;;
65045;SDS011;54657;52.022;5.534;2022-09-21T06:05:56;8.07;;;3.40;;
65045;SDS011;54657;52.022;5.534;2022-09-21T06:08:23;7.78;;;3.22;;
65045;SDS011;54657;52.022;5.534;2022-09-21T06:10:49;3.40;;;3.10;;
65045;SDS011;54657;52.022;5.534;2022-09-21T06:13:16;5.97;;;3.15;;
65045;SDS011;54657;52.022;5.534;2022-09-21T06:15:41;6.93;;;3.33;;
65045;SDS011;54657;52.022;5.534;2022-09-21T06:18:07;4.65;;;2.92;;
65045;SDS011;54657;52.022;5.534;2022-09-21T06:20:34;3.42;;;3.05;;
65045;SDS011;54657;52.022;5.534;2022-09-21T06:23:03;3.67;;;2.90;;
65045;SDS011;54657;52.022;5.534;2022-09-21T06:25:30;6.38;;;2.92;;
65045;SDS011;54657;52.022;5.534;2022-09-21T06:28:00;5.50;;;3.30;;
65045;SDS011;54657;52.022;5.534;2022-09-21T06:30:28;5.57;;;3.17;;
65045;SDS011;54657;52.022;5.534;2022-09-21T06:32:57;4.25;;;3.35;;
65045;SDS011;54657;52.022;5.534;2022-09-21T06:35:24;4.38;;;3.38;;
65045;SDS011;54657;52.022;5.534;2022-09-21T06:37:50;5.47;;;3.28;;
65045;SDS011;54657;52.022;5.534;2022-09-21T06:40:16;5.35;;;3.75;;
65045;SDS011;54657;52.022;5.534;2022-09-21T06:42:41;7.28;;;3.35;;
65045;SDS011;54657;52.022;5.534;2022-09-21T06:45:07;6.35;;;3.63;;
65045;SDS011;54657;52.022;5.534;2022-09-21T06:47:33;8.20;;;4.20;;
65045;SDS011;54657;52.022;5.534;2022-09-21T06:49:58;7.40;;;4.10;;
65045;SDS011;54657;52.022;5.534;2022-09-21T06:52:24;7.90;;;4.50;;
65045;SDS011;54657;52.022;5.534;2022-09-21T06:54:49;7.95;;;4.70;;
65045;SDS011;54657;52.022;5.534;2022-09-21T06:57:15;9.35;;;5.32;;
65045;SDS011;54657;52.022;5.534;2022-09-21T06:59:40;8.95;;;5.28;;
65045;SDS011;54657;52.022;5.534;2022-09-21T07:02:07;9.68;;;4.57;;
65045;SDS011;54657;52.022;5.534;2022-09-21T07:04:33;14.77;;;5.20;;
65045;SDS011;54657;52.022;5.534;2022-09-21T07:06:58;10.60;;;4.97;;
65045;SDS011;54657;52.022;5.534;2022-09-21T07:09:25;11.32;;;4.85;;
65045;SDS011;54657;52.022;5.534;2022-09-21T07:11:50;7.88;;;4.78;;
65045;SDS011;54657;52.022;5.534;2022-09-21T07:14:16;11.07;;;5.72;;
65045;SDS011;54657;52.022;5.534;2022-09-21T07:16:41;10.95;;;4.75;;
65045;SDS011;54657;52.022;5.534;2022-09-21T07:19:07;8.55;;;4.55;;
65045;SDS011;54657;52.022;5.534;2022-09-21T07:21:33;6.63;;;4.68;;
65045;SDS011;54657;52.022;5.534;2022-09-21T07:23:58;9.57;;;4.90;;
65045;SDS011;54657;52.022;5.534;2022-09-21T07:26:24;13.57;;;5.63;;
65045;SDS011;54657;52.022;5.534;2022-09-21T07:28:49;13.32;;;5.55;;
65045;SDS011;54657;52.022;5.534;2022-09-21T07:31:15;6.55;;;4.43;;
65045;SDS011;54657;52.022;5.534;2022-09-21T07:33:42;10.98;;;5.22;;
65045;SDS011;54657;52.022;5.534;2022-09-21T07:36:10;9.30;;;4.68;;
65045;SDS011;54657;52.022;5.534;2022-09-21T07:38:37;11.73;;;4.32;;
65045;SDS011;54657;52.022;5.534;2022-09-21T07:41:13;9.40;;;4.45;;
65045;SDS011;54657;52.022;5.534;2022-09-21T07:43:40;7.68;;;4.13;;
65045;SDS011;54657;52.022;5.534;2022-09-21T07:46:06;10.00;;;4.30;;
65045;SDS011;54657;52.022;5.534;2022-09-21T07:48:32;8.38;;;3.80;;
65045;SDS011;54657;52.022;5.534;2022-09-21T07:51:01;10.15;;;4.07;;
65045;SDS011;54657;52.022;5.534;2022-09-21T07:53:30;6.20;;;2.80;;
65045;SDS011;54657;52.022;5.534;2022-09-21T07:56:04;4.80;;;2.53;;
65045;SDS011;54657;52.022;5.534;2022-09-21T07:58:34;5.60;;;2.90;;
65045;SDS011;54657;52.022;5.534;2022-09-21T08:01:19;4.38;;;2.63;;
65045;SDS011;54657;52.022;5.534;2022-09-21T08:03:52;4.18;;;2.20;;
65045;SDS011;54657;52.022;5.534;2022-09-21T08:06:19;8.30;;;2.47;;
65045;SDS011;54657;52.022;5.534;2022-09-21T08:08:46;9.45;;;2.90;;
65045;SDS011;54657;52.022;5.534;2022-09-21T08:11:13;6.32;;;2.50;;
65045;SDS011;54657;52.022;5.534;2022-09-21T08:13:40;8.73;;;2.70;;
65045;SDS011;54657;52.022;5.534;2022-09-21T08:16:06;9.13;;;2.15;;
65045;SDS011;54657;52.022;5.534;2022-09-21T08:18:34;7.05;;;2.42;;
65045;SDS011;54657;52.022;5.534;2022-09-21T08:21:02;5.57;;;2.40;;
65045;SDS011;54657;52.022;5.534;2022-09-21T08:23:28;3.20;;;1.67;;
65045;SDS011;54657;52.022;5.534;2022-09-21T08:26:00;4.10;;;1.80;;
65045;SDS011;54657;52.022;5.534;2022-09-21T08:30:53;3.60;;;1.35;;
65045;SDS011;54657;52.022;5.534;2022-09-21T08:33:22;3.38;;;1.27;;
65045;SDS011;54657;52.022;5.534;2022-09-21T08:35:51;5.80;;;1.52;;
65045;SDS011;54657;52.022;5.534;2022-09-21T08:38:21;3.92;;;1.45;;
65045;SDS011;54657;52.022;5.534;2022-09-21T08:40:47;5.57;;;1.42;;
65045;SDS011;54657;52.022;5.534;2022-09-21T08:43:28;3.95;;;1.48;;
65045;SDS011;54657;52.022;5.534;2022-09-21T08:45:59;4.35;;;1.13;;
65045;SDS011;54657;52.022;5.534;2022-09-21T08:48:29;4.07;;;1.33;;
65045;SDS011;54657;52.022;5.534;2022-09-21T08:51:03;4.22;;;1.35;;
65045;SDS011;54657;52.022;5.534;2022-09-21T08:53:31;4.07;;;1.83;;
65045;SDS011;54657;52.022;5.534;2022-09-21T08:56:04;5.43;;;1.70;;
65045;SDS011;54657;52.022;5.534;2022-09-21T08:58:30;7.05;;;2.00;;
65045;SDS011;54657;52.022;5.534;2022-09-21T09:01:41;5.22;;;2.13;;
65045;SDS011;54657;52.022;5.534;2022-09-21T09:04:08;6.53;;;1.63;;
65045;SDS011;54657;52.022;5.534;2022-09-21T09:12:13;11.18;;;2.05;;
65045;SDS011;54657;52.022;5.534;2022-09-21T09:15:09;4.20;;;1.50;;
65045;SDS011;54657;52.022;5.534;2022-09-21T09:17:54;6.13;;;1.40;;
65045;SDS011;54657;52.022;5.534;2022-09-21T09:20:42;3.53;;;1.30;;
65045;SDS011;54657;52.022;5.534;2022-09-21T09:23:21;4.10;;;1.27;;
65045;SDS011;54657;52.022;5.534;2022-09-21T09:25:56;4.13;;;1.23;;
65045;SDS011;54657;52.022;5.534;2022-09-21T09:28:35;4.05;;;1.10;;
65045;SDS011;54657;52.022;5.534;2022-09-21T09:31:11;4.72;;;1.42;;
65045;SDS011;54657;52.022;5.534;2022-09-21T09:34:17;3.53;;;1.17;;
65045;SDS011;54657;52.022;5.534;2022-09-21T09:36:53;3.40;;;1.10;;
65045;SDS011;54657;52.022;5.534;2022-09-21T09:39:23;3.72;;;1.05;;
65045;SDS011;54657;52.022;5.534;2022-09-21T09:50:28;4.70;;;1.38;;
65045;SDS011;54657;52.022;5.534;2022-09-21T09:53:04;8.38;;;1.52;;
65045;SDS011;54657;52.022;5.534;2022-09-21T09:55:47;5.53;;;1.00;;
65045;SDS011;54657;52.022;5.534;2022-09-21T09:58:19;1.15;;;0.75;;
65045;SDS011;54657;52.022;5.534;2022-09-21T10:00:52;5.57;;;1.55;;
65045;SDS011;54657;52.022;5.534;2022-09-21T10:03:20;5.43;;;1.15;;
65045;SDS011;54657;52.022;5.534;2022-09-21T10:05:48;3.35;;;1.05;;
65045;SDS011;54657;52.022;5.534;2022-09-21T10:10:55;2.88;;;0.90;;
65045;SDS011;54657;52.022;5.534;2022-09-21T10:13:28;4.18;;;1.05;;
65045;SDS011;54657;52.022;5.534;2022-09-21T10:15:58;4.38;;;1.33;;
65045;SDS011;54657;52.022;5.534;2022-09-21T10:21:04;3.20;;;1.13;;
65045;SDS011;54657;52.022;5.534;2022-09-21T10:23:32;5.45;;;1.50;;
65045;SDS011;54657;52.022;5.534;2022-09-21T10:26:00;8.60;;;1.67;;
65045;SDS011;54657;52.022;5.534;2022-09-21T10:28:29;6.07;;;1.10;;
65045;SDS011;54657;52.022;5.534;2022-09-21T10:31:17;3.90;;;1.05;;
65045;SDS011;54657;52.022;5.534;2022-09-21T10:36:40;3.33;;;0.98;;
65045;SDS011;54657;52.022;5.534;2022-09-21T10:39:17;1.98;;;0.80;;
65045;SDS011;54657;52.022;5.534;2022-09-21T10:42:03;2.05;;;0.98;;
65045;SDS011;54657;52.022;5.534;2022-09-21T10:44:42;3.22;;;0.80;;
65045;SDS011;54657;52.022;5.534;2022-09-21T10:49:42;4.50;;;0.98;;
65045;SDS011;54657;52.022;5.534;2022-09-21T10:52:11;1.75;;;0.75;;
65045;SDS011;54657;52.022;5.534;2022-09-21T10:54:37;4.20;;;1.10;;
65045;SDS011;54657;52.022;5.534;2022-09-21T10:57:06;4.53;;;1.40;;
65045;SDS011;54657;52.022;5.534;2022-09-21T10:59:37;6.72;;;1.10;;
65045;SDS011;54657;52.022;5.534;2022-09-21T11:02:22;4.38;;;1.38;;
65045;SDS011;54657;52.022;5.534;2022-09-21T11:05:14;5.47;;;1.10;;
65045;SDS011;54657;52.022;5.534;2022-09-21T11:20:21;2.00;;;0.80;;
65045;SDS011;54657;52.022;5.534;2022-09-21T11:23:08;4.32;;;1.02;;
65045;SDS011;54657;52.022;5.534;2022-09-21T11:26:02;3.13;;;0.75;;
65045;SDS011;54657;52.022;5.534;2022-09-21T11:39:08;1.65;;;0.73;;
65045;SDS011;54657;52.022;5.534;2022-09-21T11:41:56;2.05;;;0.70;;
65045;SDS011;54657;52.022;5.534;2022-09-21T11:47:38;2.85;;;1.10;;
65045;SDS011;54657;52.022;5.534;2022-09-21T11:50:37;4.68;;;0.80;;
65045;SDS011;54657;52.022;5.534;2022-09-21T11:53:24;2.80;;;0.90;;
65045;SDS011;54657;52.022;5.534;2022-09-21T12:04:31;2.33;;;0.70;;
65045;SDS011;54657;52.022;5.534;2022-09-21T12:10:06;1.67;;;1.13;;
65045;SDS011;54657;52.022;5.534;2022-09-21T12:12:52;2.83;;;0.93;;
65045;SDS011;54657;52.022;5.534;2022-09-21T12:15:38;3.97;;;0.98;;
65045;SDS011;54657;52.022;5.534;2022-09-21T12:21:47;1.58;;;0.70;;
65045;SDS011;54657;52.022;5.534;2022-09-21T12:24:13;1.48;;;0.60;;
65045;SDS011;54657;52.022;5.534;2022-09-21T12:26:49;2.70;;;0.80;;
65045;SDS011;54657;52.022;5.534;2022-09-21T12:29:27;1.40;;;0.55;;
65045;SDS011;54657;52.022;5.534;2022-09-21T12:32:20;4.13;;;0.70;;
65045;SDS011;54657;52.022;5.534;2022-09-21T12:34:53;3.63;;;0.90;;
65045;SDS011;54657;52.022;5.534;2022-09-21T12:37:25;2.97;;;0.88;;
65045;SDS011;54657;52.022;5.534;2022-09-21T12:50:33;1.42;;;0.80;;
65045;SDS011;54657;52.022;5.534;2022-09-21T12:53:05;2.65;;;0.77;;
65045;SDS011;54657;52.022;5.534;2022-09-21T12:55:49;2.30;;;0.73;;
65045;SDS011;54657;52.022;5.534;2022-09-21T13:03:38;2.75;;;0.93;;
65045;SDS011;54657;52.022;5.534;2022-09-21T13:08:39;6.90;;;0.95;;
65045;SDS011;54657;52.022;5.534;2022-09-21T13:11:07;2.63;;;0.88;;
65045;SDS011;54657;52.022;5.534;2022-09-21T13:13:37;3.50;;;0.80;;
65045;SDS011;54657;52.022;5.534;2022-09-21T13:16:20;2.55;;;0.68;;
65045;SDS011;54657;52.022;5.534;2022-09-21T13:19:25;2.20;;;0.70;;
65045;SDS011;54657;52.022;5.534;2022-09-21T13:21:46;2.90;;;0.50;;
65045;SDS011;54657;52.022;5.534;2022-09-21T13:24:38;2.75;;;0.70;;
65045;SDS011;54657;52.022;5.534;2022-09-21T13:27:06;0.88;;;0.63;;
65045;SDS011;54657;52.022;5.534;2022-09-21T13:29:36;2.38;;;0.60;;
65045;SDS011;54657;52.022;5.534;2022-09-21T13:34:36;3.50;;;0.65;;
65045;SDS011;54657;52.022;5.534;2022-09-21T13:45:00;3.00;;;1.15;;
65045;SDS011;54657;52.022;5.534;2022-09-21T13:47:35;3.75;;;1.08;;
65045;SDS011;54657;52.022;5.534;2022-09-21T13:53:03;2.92;;;0.60;;
65045;SDS011;54657;52.022;5.534;2022-09-21T13:55:34;2.70;;;0.90;;
65045;SDS011;54657;52.022;5.534;2022-09-21T13:58:14;4.50;;;0.85;;
65045;SDS011;54657;52.022;5.534;2022-09-21T14:03:32;5.03;;;1.30;;
65045;SDS011;54657;52.022;5.534;2022-09-21T14:08:32;4.28;;;0.85;;
65045;SDS011;54657;52.022;5.534;2022-09-21T14:11:06;1.60;;;0.77;;
65045;SDS011;54657;52.022;5.534;2022-09-21T14:13:40;3.80;;;0.80;;
65045;SDS011;54657;52.022;5.534;2022-09-21T14:19:02;1.98;;;1.10;;
65045;SDS011;54657;52.022;5.534;2022-09-21T14:24:33;2.55;;;0.57;;
65045;SDS011;54657;52.022;5.534;2022-09-21T14:32:18;3.30;;;0.90;;
65045;SDS011;54657;52.022;5.534;2022-09-21T14:34:48;3.03;;;0.90;;
65045;SDS011;54657;52.022;5.534;2022-09-21T14:37:36;3.72;;;1.30;;
65045;SDS011;54657;52.022;5.534;2022-09-21T14:40:23;1.50;;;0.70;;
65045;SDS011;54657;52.022;5.534;2022-09-21T14:43:07;3.47;;;0.85;;
65045;SDS011;54657;52.022;5.534;2022-09-21T14:45:47;2.38;;;0.90;;
65045;SDS011;54657;52.022;5.534;2022-09-21T14:48:25;0.88;;;0.60;;
65045;SDS011;54657;52.022;5.534;2022-09-21T14:51:04;1.92;;;0.93;;
65045;SDS011;54657;52.022;5.534;2022-09-21T14:53:50;2.13;;;0.80;;
65045;SDS011;54657;52.022;5.534;2022-09-21T14:56:47;4.03;;;1.10;;
65045;SDS011;54657;52.022;5.534;2022-09-21T15:02:00;1.58;;;0.50;;
65045;SDS011;54657;52.022;5.534;2022-09-21T15:04:36;3.78;;;1.08;;
65045;SDS011;54657;52.022;5.534;2022-09-21T15:18:41;4.00;;;2.70;;
65045;SDS011;54657;52.022;5.534;2022-09-21T15:21:20;3.58;;;1.10;;
65045;SDS011;54657;52.022;5.534;2022-09-21T15:23:56;2.97;;;1.23;;
65045;SDS011;54657;52.022;5.534;2022-09-21T15:28:58;1.38;;;0.60;;
65045;SDS011;54657;52.022;5.534;2022-09-21T15:31:30;2.30;;;0.80;;
65045;SDS011;54657;52.022;5.534;2022-09-21T15:34:03;1.85;;;0.68;;
65045;SDS011;54657;52.022;5.534;2022-09-21T15:36:30;1.75;;;0.80;;
65045;SDS011;54657;52.022;5.534;2022-09-21T15:38:58;2.22;;;1.13;;
65045;SDS011;54657;52.022;5.534;2022-09-21T15:44:04;1.85;;;0.60;;
65045;SDS011;54657;52.022;5.534;2022-09-21T15:46:36;2.65;;;0.70;;
65045;SDS011;54657;52.022;5.534;2022-09-21T15:49:03;1.77;;;0.73;;
65045;SDS011;54657;52.022;5.534;2022-09-21T15:51:30;1.80;;;0.45;;
65045;SDS011;54657;52.022;5.534;2022-09-21T15:56:55;2.42;;;0.93;;
65045;SDS011;54657;52.022;5.534;2022-09-21T15:59:27;2.50;;;0.70;;
65045;SDS011;54657;52.022;5.534;2022-09-21T16:01:55;2.38;;;1.20;;
65045;SDS011;54657;52.022;5.534;2022-09-21T16:04:24;7.05;;;2.88;;
65045;SDS011;54657;52.022;5.534;2022-09-21T16:06:59;7.18;;;1.45;;
65045;SDS011;54657;52.022;5.534;2022-09-21T16:09:38;1.10;;;0.68;;
65045;SDS011;54657;52.022;5.534;2022-09-21T16:17:53;2.28;;;0.93;;
65045;SDS011;54657;52.022;5.534;2022-09-21T16:20:37;2.67;;;0.68;;
65045;SDS011;54657;52.022;5.534;2022-09-21T16:23:11;2.47;;;0.70;;
65045;SDS011;54657;52.022;5.534;2022-09-21T16:25:54;6.43;;;0.70;;
65045;SDS011;54657;52.022;5.534;2022-09-21T16:28:38;4.22;;;1.40;;
65045;SDS011;54657;52.022;5.534;2022-09-21T16:31:28;2.17;;;0.70;;
65045;SDS011;54657;52.022;5.534;2022-09-21T16:38:46;1.88;;;1.17;;
65045;SDS011;54657;52.022;5.534;2022-09-21T16:41:12;4.00;;;1.10;;
65045;SDS011;54657;52.022;5.534;2022-09-21T16:43:41;5.13;;;2.20;;
65045;SDS011;54657;52.022;5.534;2022-09-21T16:46:11;5.05;;;1.30;;
65045;SDS011;54657;52.022;5.534;2022-09-21T16:48:37;3.75;;;2.40;;
65045;SDS011;54657;52.022;5.534;2022-09-21T16:51:12;2.97;;;1.50;;
65045;SDS011;54657;52.022;5.534;2022-09-21T16:53:41;4.32;;;1.30;;
65045;SDS011;54657;52.022;5.534;2022-09-21T16:56:11;2.92;;;1.20;;
65045;SDS011;54657;52.022;5.534;2022-09-21T16:58:38;2.45;;;1.10;;
65045;SDS011;54657;52.022;5.534;2022-09-21T17:01:06;1.20;;;1.00;;
65045;SDS011;54657;52.022;5.534;2022-09-21T17:03:33;2.05;;;0.82;;
65045;SDS011;54657;52.022;5.534;2022-09-21T17:05:59;0.95;;;0.82;;
65045;SDS011;54657;52.022;5.534;2022-09-21T17:08:24;2.33;;;1.02;;
65045;SDS011;54657;52.022;5.534;2022-09-21T17:10:51;3.85;;;1.00;;
65045;SDS011;54657;52.022;5.534;2022-09-21T17:13:17;2.90;;;0.77;;
65045;SDS011;54657;52.022;5.534;2022-09-21T17:15:44;3.25;;;0.70;;
65045;SDS011;54657;52.022;5.534;2022-09-21T17:18:11;2.20;;;1.00;;
65045;SDS011;54657;52.022;5.534;2022-09-21T17:20:38;5.65;;;1.30;;
65045;SDS011;54657;52.022;5.534;2022-09-21T17:23:06;3.38;;;1.70;;
65045;SDS011;54657;52.022;5.534;2022-09-21T17:25:32;1.98;;;1.77;;
65045;SDS011;54657;52.022;5.534;2022-09-21T17:27:59;2.60;;;2.40;;
65045;SDS011;54657;52.022;5.534;2022-09-21T17:30:26;4.82;;;2.42;;
65045;SDS011;54657;52.022;5.534;2022-09-21T17:32:52;3.17;;;1.90;;
65045;SDS011;54657;52.022;5.534;2022-09-21T17:35:24;2.67;;;1.40;;
65045;SDS011;54657;52.022;5.534;2022-09-21T17:38:05;5.95;;;4.63;;
65045;SDS011;54657;52.022;5.534;2022-09-21T17:40:35;4.63;;;3.20;;
65045;SDS011;54657;52.022;5.534;2022-09-21T17:45:50;2.13;;;1.40;;
65045;SDS011;54657;52.022;5.534;2022-09-21T17:48:22;1.58;;;1.40;;
65045;SDS011;54657;52.022;5.534;2022-09-21T17:50:48;1.77;;;1.38;;
65045;SDS011;54657;52.022;5.534;2022-09-21T17:53:14;3.15;;;1.20;;
65045;SDS011;54657;52.022;5.534;2022-09-21T17:56:11;1.80;;;1.10;;
65045;SDS011;54657;52.022;5.534;2022-09-21T17:58:57;2.40;;;1.30;;
65045;SDS011;54657;52.022;5.534;2022-09-21T18:04:03;2.92;;;1.52;;
65045;SDS011;54657;52.022;5.534;2022-09-21T18:06:30;4.18;;;1.60;;
65045;SDS011;54657;52.022;5.534;2022-09-21T18:08:58;3.47;;;1.58;;
65045;SDS011;54657;52.022;5.534;2022-09-21T18:19:30;1.95;;;1.55;;
65045;SDS011;54657;52.022;5.534;2022-09-21T18:24:41;4.05;;;2.78;;
65045;SDS011;54657;52.022;5.534;2022-09-21T18:27:08;8.05;;;4.03;;
65045;SDS011;54657;52.022;5.534;2022-09-21T18:29:35;6.63;;;4.20;;
65045;SDS011;54657;52.022;5.534;2022-09-21T18:34:52;5.35;;;2.17;;
65045;SDS011;54657;52.022;5.534;2022-09-21T18:40:16;4.20;;;2.75;;